Terminal Aerodrome Forecast
Issued by NWS

Home | Current Version | Previous Version | Text Only | Print | Product List | Glossary On
Versions: 1 2 3 4 5 6 7 8 9 10 11 12 13 14 15 16 17
000
FTUS43 KPAH 200300 AAA
TAFCGI
TAF AMD
KCGI 200353Z 2004/2024 03004KT P6SM OVC035
     FM200900 05004KT P6SM OVC022
     FM201200 07002KT 4SM BR OVC008
     FM201600 09003KT P6SM BKN015
     FM202000 11003KT P6SM BKN050=

USA.gov is the U.S. government's official web portal to all federal, state and local government web resources and services.